sensor_id;sensor_type;location;lat;lon;timestamp;temperature;humidity
2543;DHT22;1116;51.502;7.414;2023-05-29T00:00:43;14.70;1.00
2543;DHT22;1116;51.502;7.414;2023-05-29T00:03:13;14.60;1.00
2543;DHT22;1116;51.502;7.414;2023-05-29T00:05:46;14.80;1.00
2543;DHT22;1116;51.502;7.414;2023-05-29T00:08:17;14.50;1.00
2543;DHT22;1116;51.502;7.414;2023-05-29T00:10:48;14.40;1.00
2543;DHT22;1116;51.502;7.414;2023-05-29T00:13:19;14.40;1.00
2543;DHT22;1116;51.502;7.414;2023-05-29T00:15:53;14.40;1.00
2543;DHT22;1116;51.502;7.414;2023-05-29T00:18:24;14.30;1.00
2543;DHT22;1116;51.502;7.414;2023-05-29T00:20:55;14.20;1.00
2543;DHT22;1116;51.502;7.414;2023-05-29T00:23:27;14.20;1.50
2543;DHT22;1116;51.502;7.414;2023-05-29T00:25:58;14.30;1.50
2543;DHT22;1116;51.502;7.414;2023-05-29T00:28:29;14.30;1.50
2543;DHT22;1116;51.502;7.414;2023-05-29T00:31:03;14.30;2.00
2543;DHT22;1116;51.502;7.414;2023-05-29T00:33:34;14.20;1.90
2543;DHT22;1116;51.502;7.414;2023-05-29T00:36:06;14.20;2.20
2543;DHT22;1116;51.502;7.414;2023-05-29T00:38:37;14.20;2.40
2543;DHT22;1116;51.502;7.414;2023-05-29T00:41:08;14.20;2.40
2543;DHT22;1116;51.502;7.414;2023-05-29T00:43:43;14.10;2.90
2543;DHT22;1116;51.502;7.414;2023-05-29T00:46:17;14.00;3.70
2543;DHT22;1116;51.502;7.414;2023-05-29T00:48:48;14.00;4.40
2543;DHT22;1116;51.502;7.414;2023-05-29T00:51:21;13.80;5.20
2543;DHT22;1116;51.502;7.414;2023-05-29T00:53:53;13.70;5.40
2543;DHT22;1116;51.502;7.414;2023-05-29T00:56:24;13.70;6.00
2543;DHT22;1116;51.502;7.414;2023-05-29T00:58:56;13.60;7.00
2543;DHT22;1116;51.502;7.414;2023-05-29T01:01:29;13.50;7.90
2543;DHT22;1116;51.502;7.414;2023-05-29T01:04:01;13.80;8.10
2543;DHT22;1116;51.502;7.414;2023-05-29T01:06:32;13.40;7.90
2543;DHT22;1116;51.502;7.414;2023-05-29T01:09:04;13.40;7.90
2543;DHT22;1116;51.502;7.414;2023-05-29T01:11:43;13.40;7.90
2543;DHT22;1116;51.502;7.414;2023-05-29T01:14:23;13.40;8.20
2543;DHT22;1116;51.502;7.414;2023-05-29T01:17:05;13.30;8.50
2543;DHT22;1116;51.502;7.414;2023-05-29T01:19:53;13.40;8.60
2543;DHT22;1116;51.502;7.414;2023-05-29T01:22:39;13.30;8.80
2543;DHT22;1116;51.502;7.414;2023-05-29T01:25:16;13.30;9.10
2543;DHT22;1116;51.502;7.414;2023-05-29T01:27:52;13.20;8.50
2543;DHT22;1116;51.502;7.414;2023-05-29T01:30:24;13.20;8.70
2543;DHT22;1116;51.502;7.414;2023-05-29T01:32:55;13.00;9.20
2543;DHT22;1116;51.502;7.414;2023-05-29T01:35:27;12.80;9.90
2543;DHT22;1116;51.502;7.414;2023-05-29T01:37:58;12.70;10.40
2543;DHT22;1116;51.502;7.414;2023-05-29T01:40:29;12.70;10.10
2543;DHT22;1116;51.502;7.414;2023-05-29T01:43:02;12.50;10.50
2543;DHT22;1116;51.502;7.414;2023-05-29T01:45:34;12.50;10.30
2543;DHT22;1116;51.502;7.414;2023-05-29T01:48:06;12.30;10.30
2543;DHT22;1116;51.502;7.414;2023-05-29T01:50:38;12.20;11.00
2543;DHT22;1116;51.502;7.414;2023-05-29T01:53:11;12.20;10.90
2543;DHT22;1116;51.502;7.414;2023-05-29T01:55:43;12.30;11.00
2543;DHT22;1116;51.502;7.414;2023-05-29T01:58:17;12.30;10.70
2543;DHT22;1116;51.502;7.414;2023-05-29T02:00:51;12.20;10.60
2543;DHT22;1116;51.502;7.414;2023-05-29T02:03:22;12.00;11.00
2543;DHT22;1116;51.502;7.414;2023-05-29T02:05:53;12.00;11.40
2543;DHT22;1116;51.502;7.414;2023-05-29T02:08:24;12.00;11.40
2543;DHT22;1116;51.502;7.414;2023-05-29T02:10:55;12.00;11.30
2543;DHT22;1116;51.502;7.414;2023-05-29T02:13:28;12.00;11.20
2543;DHT22;1116;51.502;7.414;2023-05-29T02:15:59;11.90;11.90
2543;DHT22;1116;51.502;7.414;2023-05-29T02:18:30;12.10;11.80
2543;DHT22;1116;51.502;7.414;2023-05-29T02:21:02;11.90;11.30
2543;DHT22;1116;51.502;7.414;2023-05-29T02:23:33;11.90;11.50
2543;DHT22;1116;51.502;7.414;2023-05-29T02:26:04;11.90;11.60
2543;DHT22;1116;51.502;7.414;2023-05-29T02:28:38;12.10;12.30
2543;DHT22;1116;51.502;7.414;2023-05-29T02:31:10;11.70;12.40
2543;DHT22;1116;51.502;7.414;2023-05-29T02:33:41;11.70;12.60
2543;DHT22;1116;51.502;7.414;2023-05-29T02:36:12;11.70;12.50
2543;DHT22;1116;51.502;7.414;2023-05-29T02:38:44;11.60;12.80
2543;DHT22;1116;51.502;7.414;2023-05-29T02:41:15;11.70;13.10
2543;DHT22;1116;51.502;7.414;2023-05-29T02:43:48;11.70;12.90
2543;DHT22;1116;51.502;7.414;2023-05-29T02:46:20;11.70;13.20
2543;DHT22;1116;51.502;7.414;2023-05-29T02:48:51;11.60;12.90
2543;DHT22;1116;51.502;7.414;2023-05-29T02:51:21;11.70;12.60
2543;DHT22;1116;51.502;7.414;2023-05-29T02:53:52;11.70;12.60
2543;DHT22;1116;51.502;7.414;2023-05-29T02:56:23;11.70;12.60
2543;DHT22;1116;51.502;7.414;2023-05-29T02:58:57;11.60;13.10
2543;DHT22;1116;51.502;7.414;2023-05-29T03:01:28;11.60;13.70
2543;DHT22;1116;51.502;7.414;2023-05-29T03:04:01;11.50;13.90
2543;DHT22;1116;51.502;7.414;2023-05-29T03:06:32;11.50;14.20
2543;DHT22;1116;51.502;7.414;2023-05-29T03:09:04;11.40;15.00
2543;DHT22;1116;51.502;7.414;2023-05-29T03:11:36;11.40;15.40
2543;DHT22;1116;51.502;7.414;2023-05-29T03:14:11;11.40;15.30
2543;DHT22;1116;51.502;7.414;2023-05-29T03:16:42;11.40;15.40
2543;DHT22;1116;51.502;7.414;2023-05-29T03:19:13;11.30;15.40
2543;DHT22;1116;51.502;7.414;2023-05-29T03:21:44;11.20;16.10
2543;DHT22;1116;51.502;7.414;2023-05-29T03:24:16;11.20;16.30
2543;DHT22;1116;51.502;7.414;2023-05-29T03:26:47;11.20;16.30
2543;DHT22;1116;51.502;7.414;2023-05-29T03:29:20;11.30;16.10
2543;DHT22;1116;51.502;7.414;2023-05-29T03:31:51;11.20;16.30
2543;DHT22;1116;51.502;7.414;2023-05-29T03:34:22;11.30;16.10
2543;DHT22;1116;51.502;7.414;2023-05-29T03:36:54;11.20;16.80
2543;DHT22;1116;51.502;7.414;2023-05-29T03:39:25;11.20;16.70
2543;DHT22;1116;51.502;7.414;2023-05-29T03:41:56;11.20;16.70
2543;DHT22;1116;51.502;7.414;2023-05-29T03:44:30;11.10;17.20
2543;DHT22;1116;51.502;7.414;2023-05-29T03:47:01;11.10;17.50
2543;DHT22;1116;51.502;7.414;2023-05-29T03:49:32;11.20;17.10
2543;DHT22;1116;51.502;7.414;2023-05-29T03:52:03;11.20;17.00
2543;DHT22;1116;51.502;7.414;2023-05-29T03:54:35;11.10;17.00
2543;DHT22;1116;51.502;7.414;2023-05-29T03:57:06;11.10;17.60
2543;DHT22;1116;51.502;7.414;2023-05-29T03:59:40;11.10;17.60
2543;DHT22;1116;51.502;7.414;2023-05-29T04:02:11;11.10;17.50
2543;DHT22;1116;51.502;7.414;2023-05-29T04:04:45;11.20;17.40
2543;DHT22;1116;51.502;7.414;2023-05-29T04:07:16;11.20;17.10
2543;DHT22;1116;51.502;7.414;2023-05-29T04:09:48;11.20;17.00
2543;DHT22;1116;51.502;7.414;2023-05-29T04:12:19;11.10;17.80
2543;DHT22;1116;51.502;7.414;2023-05-29T04:14:53;11.20;17.80
2543;DHT22;1116;51.502;7.414;2023-05-29T04:17:23;11.20;17.70
2543;DHT22;1116;51.502;7.414;2023-05-29T04:19:54;11.40;17.00
2543;DHT22;1116;51.502;7.414;2023-05-29T04:22:25;11.50;16.30
2543;DHT22;1116;51.502;7.414;2023-05-29T04:24:56;11.50;16.10
2543;DHT22;1116;51.502;7.414;2023-05-29T04:27:27;11.50;16.10
2543;DHT22;1116;51.502;7.414;2023-05-29T04:30:02;11.60;15.60
2543;DHT22;1116;51.502;7.414;2023-05-29T04:32:37;11.90;15.70
2543;DHT22;1116;51.502;7.414;2023-05-29T04:35:09;11.90;14.70
2543;DHT22;1116;51.502;7.414;2023-05-29T04:37:41;12.10;14.10
2543;DHT22;1116;51.502;7.414;2023-05-29T04:40:12;12.50;12.00
2543;DHT22;1116;51.502;7.414;2023-05-29T04:42:45;13.00;9.60
2543;DHT22;1116;51.502;7.414;2023-05-29T04:45:20;13.40;8.30
2543;DHT22;1116;51.502;7.414;2023-05-29T04:47:51;13.80;7.30
2543;DHT22;1116;51.502;7.414;2023-05-29T04:50:23;13.90;5.70
2543;DHT22;1116;51.502;7.414;2023-05-29T04:52:58;14.40;5.20
2543;DHT22;1116;51.502;7.414;2023-05-29T04:55:29;15.00;3.10
2543;DHT22;1116;51.502;7.414;2023-05-29T04:58:01;15.10;1.00
2543;DHT22;1116;51.502;7.414;2023-05-29T05:00:34;15.50;1.00
2543;DHT22;1116;51.502;7.414;2023-05-29T05:03:05;16.10;1.00
2543;DHT22;1116;51.502;7.414;2023-05-29T05:05:38;16.40;1.00
2543;DHT22;1116;51.502;7.414;2023-05-29T05:08:09;16.60;1.00
2543;DHT22;1116;51.502;7.414;2023-05-29T05:10:40;16.30;1.00
2543;DHT22;1116;51.502;7.414;2023-05-29T05:13:11;16.30;1.00
2543;DHT22;1116;51.502;7.414;2023-05-29T05:15:44;16.20;1.00
2543;DHT22;1116;51.502;7.414;2023-05-29T05:18:15;16.50;1.00
2543;DHT22;1116;51.502;7.414;2023-05-29T05:20:46;16.90;1.00
2543;DHT22;1116;51.502;7.414;2023-05-29T05:23:17;17.10;1.00
2543;DHT22;1116;51.502;7.414;2023-05-29T05:25:48;16.90;1.00
2543;DHT22;1116;51.502;7.414;2023-05-29T05:28:19;17.20;1.00
2543;DHT22;1116;51.502;7.414;2023-05-29T05:30:52;17.80;1.00
2543;DHT22;1116;51.502;7.414;2023-05-29T05:33:24;17.80;1.00
2543;DHT22;1116;51.502;7.414;2023-05-29T05:35:55;17.90;1.00
2543;DHT22;1116;51.502;7.414;2023-05-29T05:38:28;18.00;1.00
2543;DHT22;1116;51.502;7.414;2023-05-29T05:40:59;18.10;1.00
2543;DHT22;1116;51.502;7.414;2023-05-29T05:43:30;18.50;1.00
2543;DHT22;1116;51.502;7.414;2023-05-29T05:46:04;18.90;1.00
2543;DHT22;1116;51.502;7.414;2023-05-29T05:48:35;18.80;1.00
2543;DHT22;1116;51.502;7.414;2023-05-29T05:51:05;18.80;1.00
2543;DHT22;1116;51.502;7.414;2023-05-29T05:53:36;18.70;1.00
2543;DHT22;1116;51.502;7.414;2023-05-29T05:56:07;18.70;1.00
2543;DHT22;1116;51.502;7.414;2023-05-29T05:58:40;19.10;1.00
2543;DHT22;1116;51.502;7.414;2023-05-29T06:01:14;19.00;1.00
2543;DHT22;1116;51.502;7.414;2023-05-29T06:03:45;18.70;1.00
2543;DHT22;1116;51.502;7.414;2023-05-29T06:06:16;18.80;1.00
2543;DHT22;1116;51.502;7.414;2023-05-29T06:08:47;18.80;1.00
2543;DHT22;1116;51.502;7.414;2023-05-29T06:11:18;18.70;1.00
2543;DHT22;1116;51.502;7.414;2023-05-29T06:13:49;18.50;1.00
2543;DHT22;1116;51.502;7.414;2023-05-29T06:16:23;18.50;1.00
2543;DHT22;1116;51.502;7.414;2023-05-29T06:18:54;18.70;1.00
2543;DHT22;1116;51.502;7.414;2023-05-29T06:21:26;18.40;1.00
2543;DHT22;1116;51.502;7.414;2023-05-29T06:23:57;18.30;1.00
2543;DHT22;1116;51.502;7.414;2023-05-29T06:26:28;17.50;1.00
2543;DHT22;1116;51.502;7.414;2023-05-29T06:28:59;16.90;1.00
2543;DHT22;1116;51.502;7.414;2023-05-29T06:31:32;16.70;1.00
2543;DHT22;1116;51.502;7.414;2023-05-29T06:34:03;17.20;1.00
2543;DHT22;1116;51.502;7.414;2023-05-29T06:36:34;17.00;1.00
2543;DHT22;1116;51.502;7.414;2023-05-29T06:39:06;17.70;1.00
2543;DHT22;1116;51.502;7.414;2023-05-29T06:41:39;17.70;1.00
2543;DHT22;1116;51.502;7.414;2023-05-29T06:44:10;17.30;1.00
2543;DHT22;1116;51.502;7.414;2023-05-29T06:46:46;17.80;1.00
2543;DHT22;1116;51.502;7.414;2023-05-29T06:49:17;17.00;1.00
2543;DHT22;1116;51.502;7.414;2023-05-29T06:51:48;17.20;1.00
2543;DHT22;1116;51.502;7.414;2023-05-29T06:54:19;17.80;1.00
2543;DHT22;1116;51.502;7.414;2023-05-29T06:56:50;18.80;1.00
2543;DHT22;1116;51.502;7.414;2023-05-29T06:59:36;19.30;1.00
2543;DHT22;1116;51.502;7.414;2023-05-29T07:02:10;19.70;1.00
2543;DHT22;1116;51.502;7.414;2023-05-29T07:04:41;19.10;1.00
2543;DHT22;1116;51.502;7.414;2023-05-29T07:07:12;18.40;1.00
2543;DHT22;1116;51.502;7.414;2023-05-29T07:09:43;17.70;1.00
2543;DHT22;1116;51.502;7.414;2023-05-29T07:12:14;17.60;1.00
2543;DHT22;1116;51.502;7.414;2023-05-29T07:14:45;17.80;1.00
2543;DHT22;1116;51.502;7.414;2023-05-29T07:17:19;17.90;1.00
2543;DHT22;1116;51.502;7.414;2023-05-29T07:19:50;18.20;1.00
2543;DHT22;1116;51.502;7.414;2023-05-29T07:22:22;18.00;1.00
2543;DHT22;1116;51.502;7.414;2023-05-29T07:24:53;18.30;1.00
2543;DHT22;1116;51.502;7.414;2023-05-29T07:27:23;18.10;1.00
2543;DHT22;1116;51.502;7.414;2023-05-29T07:29:54;17.40;1.00
2543;DHT22;1116;51.502;7.414;2023-05-29T07:32:28;17.20;1.00
2543;DHT22;1116;51.502;7.414;2023-05-29T07:34:59;17.10;1.00
2543;DHT22;1116;51.502;7.414;2023-05-29T07:37:30;17.10;1.00
2543;DHT22;1116;51.502;7.414;2023-05-29T07:40:00;17.20;1.00
2543;DHT22;1116;51.502;7.414;2023-05-29T07:42:33;17.50;1.00
2543;DHT22;1116;51.502;7.414;2023-05-29T07:45:05;17.60;1.00
2543;DHT22;1116;51.502;7.414;2023-05-29T07:47:39;17.40;1.00
2543;DHT22;1116;51.502;7.414;2023-05-29T07:50:11;17.00;1.00
2543;DHT22;1116;51.502;7.414;2023-05-29T07:52:42;16.80;1.00
2543;DHT22;1116;51.502;7.414;2023-05-29T07:55:13;17.00;1.00
2543;DHT22;1116;51.502;7.414;2023-05-29T07:57:44;17.30;1.00
2543;DHT22;1116;51.502;7.414;2023-05-29T08:00:17;17.20;1.00
2543;DHT22;1116;51.502;7.414;2023-05-29T08:02:50;17.50;1.00
2543;DHT22;1116;51.502;7.414;2023-05-29T08:05:22;17.20;1.00
2543;DHT22;1116;51.502;7.414;2023-05-29T08:07:53;17.10;1.00
2543;DHT22;1116;51.502;7.414;2023-05-29T08:10:24;17.30;1.00
2543;DHT22;1116;51.502;7.414;2023-05-29T08:12:55;17.00;1.00
2543;DHT22;1116;51.502;7.414;2023-05-29T08:15:26;17.00;1.00
2543;DHT22;1116;51.502;7.414;2023-05-29T08:17:59;17.30;1.00
2543;DHT22;1116;51.502;7.414;2023-05-29T08:20:30;17.50;1.00
2543;DHT22;1116;51.502;7.414;2023-05-29T08:23:02;17.70;1.00
2543;DHT22;1116;51.502;7.414;2023-05-29T08:25:33;17.80;1.00
2543;DHT22;1116;51.502;7.414;2023-05-29T08:28:05;17.90;1.00
2543;DHT22;1116;51.502;7.414;2023-05-29T08:30:46;17.80;1.00
2543;DHT22;1116;51.502;7.414;2023-05-29T08:33:20;17.70;1.00
2543;DHT22;1116;51.502;7.414;2023-05-29T08:35:51;17.80;1.00
2543;DHT22;1116;51.502;7.414;2023-05-29T08:38:22;17.80;1.00
2543;DHT22;1116;51.502;7.414;2023-05-29T08:40:56;17.60;1.00
2543;DHT22;1116;51.502;7.414;2023-05-29T08:43:30;17.70;1.00
2543;DHT22;1116;51.502;7.414;2023-05-29T08:46:02;17.90;1.00
2543;DHT22;1116;51.502;7.414;2023-05-29T08:48:38;18.20;1.00
2543;DHT22;1116;51.502;7.414;2023-05-29T08:51:13;18.00;1.00
2543;DHT22;1116;51.502;7.414;2023-05-29T08:53:46;18.00;1.00
2543;DHT22;1116;51.502;7.414;2023-05-29T08:56:17;18.30;1.00
2543;DHT22;1116;51.502;7.414;2023-05-29T08:59:01;18.20;1.00
2543;DHT22;1116;51.502;7.414;2023-05-29T09:01:34;18.20;1.00
2543;DHT22;1116;51.502;7.414;2023-05-29T09:04:09;18.10;1.00
2543;DHT22;1116;51.502;7.414;2023-05-29T09:06:41;17.90;1.00
2543;DHT22;1116;51.502;7.414;2023-05-29T09:09:12;18.10;1.00
2543;DHT22;1116;51.502;7.414;2023-05-29T09:11:43;18.40;1.00
2543;DHT22;1116;51.502;7.414;2023-05-29T09:14:34;17.90;1.00
2543;DHT22;1116;51.502;7.414;2023-05-29T09:17:06;18.10;1.00
2543;DHT22;1116;51.502;7.414;2023-05-29T09:19:39;18.50;1.00
2543;DHT22;1116;51.502;7.414;2023-05-29T09:22:13;18.60;1.00
2543;DHT22;1116;51.502;7.414;2023-05-29T09:24:47;18.30;1.00
2543;DHT22;1116;51.502;7.414;2023-05-29T09:27:19;18.40;1.00
2543;DHT22;1116;51.502;7.414;2023-05-29T09:29:50;18.50;1.00
2543;DHT22;1116;51.502;7.414;2023-05-29T09:32:21;18.60;1.00
2543;DHT22;1116;51.502;7.414;2023-05-29T09:35:00;18.20;1.00
2543;DHT22;1116;51.502;7.414;2023-05-29T09:37:31;18.30;1.00
2543;DHT22;1116;51.502;7.414;2023-05-29T09:40:06;18.50;1.00
2543;DHT22;1116;51.502;7.414;2023-05-29T09:42:38;18.80;1.00
2543;DHT22;1116;51.502;7.414;2023-05-29T09:45:09;19.00;1.00
2543;DHT22;1116;51.502;7.414;2023-05-29T09:47:41;19.00;1.00
2543;DHT22;1116;51.502;7.414;2023-05-29T09:50:25;19.00;1.00
2543;DHT22;1116;51.502;7.414;2023-05-29T09:52:57;19.10;1.00
2543;DHT22;1116;51.502;7.414;2023-05-29T09:55:31;19.20;1.00
2543;DHT22;1116;51.502;7.414;2023-05-29T09:58:04;19.10;1.00
2543;DHT22;1116;51.502;7.414;2023-05-29T10:00:36;19.20;1.00
2543;DHT22;1116;51.502;7.414;2023-05-29T10:03:07;19.00;1.00
2543;DHT22;1116;51.502;7.414;2023-05-29T10:05:42;18.90;1.00
2543;DHT22;1116;51.502;7.414;2023-05-29T10:08:14;18.90;1.00
2543;DHT22;1116;51.502;7.414;2023-05-29T10:10:49;18.70;1.00
2543;DHT22;1116;51.502;7.414;2023-05-29T10:13:24;18.60;1.00
2543;DHT22;1116;51.502;7.414;2023-05-29T10:15:56;18.90;1.00
2543;DHT22;1116;51.502;7.414;2023-05-29T10:18:34;19.00;1.00
2543;DHT22;1116;51.502;7.414;2023-05-29T10:21:11;19.30;1.00
2543;DHT22;1116;51.502;7.414;2023-05-29T10:23:45;19.30;1.00
2543;DHT22;1116;51.502;7.414;2023-05-29T10:26:19;19.20;1.00
2543;DHT22;1116;51.502;7.414;2023-05-29T10:28:56;19.40;1.00
2543;DHT22;1116;51.502;7.414;2023-05-29T10:31:37;19.40;1.00
2543;DHT22;1116;51.502;7.414;2023-05-29T10:34:18;19.50;1.00
2543;DHT22;1116;51.502;7.414;2023-05-29T10:37:06;19.30;1.00
2543;DHT22;1116;51.502;7.414;2023-05-29T10:39:39;19.60;1.00
2543;DHT22;1116;51.502;7.414;2023-05-29T10:48:39;20.10;1.00
2543;DHT22;1116;51.502;7.414;2023-05-29T10:51:28;20.00;1.00
2543;DHT22;1116;51.502;7.414;2023-05-29T10:54:06;19.90;1.00
2543;DHT22;1116;51.502;7.414;2023-05-29T10:56:37;19.80;1.00
2543;DHT22;1116;51.502;7.414;2023-05-29T10:59:09;19.70;1.00
2543;DHT22;1116;51.502;7.414;2023-05-29T11:01:40;19.70;1.00
2543;DHT22;1116;51.502;7.414;2023-05-29T11:04:27;19.90;1.00
2543;DHT22;1116;51.502;7.414;2023-05-29T11:07:00;20.00;1.00
2543;DHT22;1116;51.502;7.414;2023-05-29T11:09:37;20.20;1.00
2543;DHT22;1116;51.502;7.414;2023-05-29T11:12:16;20.10;1.00
2543;DHT22;1116;51.502;7.414;2023-05-29T11:15:04;19.90;1.00
2543;DHT22;1116;51.502;7.414;2023-05-29T11:17:44;20.10;1.00
2543;DHT22;1116;51.502;7.414;2023-05-29T11:20:37;20.20;1.00
2543;DHT22;1116;51.502;7.414;2023-05-29T11:23:14;20.10;1.00
2543;DHT22;1116;51.502;7.414;2023-05-29T11:25:49;19.90;1.00
2543;DHT22;1116;51.502;7.414;2023-05-29T11:28:21;19.90;1.00
2543;DHT22;1116;51.502;7.414;2023-05-29T11:30:53;20.00;1.00
2543;DHT22;1116;51.502;7.414;2023-05-29T11:33:27;20.20;1.00
2543;DHT22;1116;51.502;7.414;2023-05-29T11:35:59;20.40;1.00
2543;DHT22;1116;51.502;7.414;2023-05-29T11:38:30;20.60;1.00
2543;DHT22;1116;51.502;7.414;2023-05-29T11:41:04;20.40;1.00
2543;DHT22;1116;51.502;7.414;2023-05-29T11:43:35;20.40;1.00
2543;DHT22;1116;51.502;7.414;2023-05-29T11:46:19;20.40;1.00
2543;DHT22;1116;51.502;7.414;2023-05-29T11:48:51;20.50;1.00
2543;DHT22;1116;51.502;7.414;2023-05-29T11:51:22;20.70;1.00
2543;DHT22;1116;51.502;7.414;2023-05-29T11:53:54;20.90;1.00
2543;DHT22;1116;51.502;7.414;2023-05-29T11:56:31;21.00;1.00
2543;DHT22;1116;51.502;7.414;2023-05-29T11:59:02;21.10;1.00
2543;DHT22;1116;51.502;7.414;2023-05-29T12:01:35;20.60;1.00
2543;DHT22;1116;51.502;7.414;2023-05-29T12:04:16;20.60;1.00
2543;DHT22;1116;51.502;7.414;2023-05-29T12:06:47;20.50;1.00
2543;DHT22;1116;51.502;7.414;2023-05-29T12:09:24;20.40;1.00
2543;DHT22;1116;51.502;7.414;2023-05-29T12:12:04;20.50;1.00
2543;DHT22;1116;51.502;7.414;2023-05-29T12:14:38;20.60;1.00
2543;DHT22;1116;51.502;7.414;2023-05-29T12:17:09;20.50;1.00
2543;DHT22;1116;51.502;7.414;2023-05-29T12:19:40;20.60;1.00
2543;DHT22;1116;51.502;7.414;2023-05-29T12:22:12;20.40;1.00
2543;DHT22;1116;51.502;7.414;2023-05-29T12:24:43;20.30;1.00
2543;DHT22;1116;51.502;7.414;2023-05-29T12:27:16;20.20;1.00
2543;DHT22;1116;51.502;7.414;2023-05-29T12:29:48;20.30;1.00
2543;DHT22;1116;51.502;7.414;2023-05-29T12:32:19;20.40;1.00
2543;DHT22;1116;51.502;7.414;2023-05-29T12:34:51;20.70;1.00
2543;DHT22;1116;51.502;7.414;2023-05-29T12:37:22;20.60;1.00
2543;DHT22;1116;51.502;7.414;2023-05-29T12:40:23;20.70;1.00
2543;DHT22;1116;51.502;7.414;2023-05-29T12:42:58;20.90;1.00
2543;DHT22;1116;51.502;7.414;2023-05-29T12:45:32;21.20;1.00
2543;DHT22;1116;51.502;7.414;2023-05-29T12:48:04;21.00;1.00
2543;DHT22;1116;51.502;7.414;2023-05-29T12:50:38;21.20;1.00
2543;DHT22;1116;51.502;7.414;2023-05-29T12:53:11;21.10;1.00
2543;DHT22;1116;51.502;7.414;2023-05-29T12:55:44;21.10;1.00
2543;DHT22;1116;51.502;7.414;2023-05-29T12:58:18;21.20;1.00
2543;DHT22;1116;51.502;7.414;2023-05-29T13:00:53;21.30;1.00
2543;DHT22;1116;51.502;7.414;2023-05-29T13:03:25;21.30;1.00
2543;DHT22;1116;51.502;7.414;2023-05-29T13:05:56;21.00;1.00
2543;DHT22;1116;51.502;7.414;2023-05-29T13:08:27;20.90;1.00
2543;DHT22;1116;51.502;7.414;2023-05-29T13:10:58;20.80;1.00
2543;DHT22;1116;51.502;7.414;2023-05-29T13:13:32;21.00;1.00
2543;DHT22;1116;51.502;7.414;2023-05-29T13:16:03;20.90;1.00
2543;DHT22;1116;51.502;7.414;2023-05-29T13:18:34;21.00;1.00
2543;DHT22;1116;51.502;7.414;2023-05-29T13:21:05;21.30;1.00
2543;DHT22;1116;51.502;7.414;2023-05-29T13:23:36;21.10;1.00
2543;DHT22;1116;51.502;7.414;2023-05-29T13:26:08;21.20;1.00
2543;DHT22;1116;51.502;7.414;2023-05-29T13:28:42;21.30;1.00
2543;DHT22;1116;51.502;7.414;2023-05-29T13:31:13;21.10;1.00
2543;DHT22;1116;51.502;7.414;2023-05-29T13:33:44;20.90;1.00
2543;DHT22;1116;51.502;7.414;2023-05-29T13:36:15;21.00;1.00
2543;DHT22;1116;51.502;7.414;2023-05-29T13:38:46;21.20;1.00
2543;DHT22;1116;51.502;7.414;2023-05-29T13:41:17;21.40;1.00
2543;DHT22;1116;51.502;7.414;2023-05-29T13:43:51;21.20;1.00
2543;DHT22;1116;51.502;7.414;2023-05-29T13:46:22;21.30;1.00
2543;DHT22;1116;51.502;7.414;2023-05-29T13:48:55;21.10;1.00
2543;DHT22;1116;51.502;7.414;2023-05-29T13:51:26;21.00;1.00
2543;DHT22;1116;51.502;7.414;2023-05-29T13:53:56;20.80;1.00
2543;DHT22;1116;51.502;7.414;2023-05-29T13:56:27;20.50;1.00
2543;DHT22;1116;51.502;7.414;2023-05-29T13:59:01;20.50;1.00
2543;DHT22;1116;51.502;7.414;2023-05-29T14:01:34;20.80;1.00
2543;DHT22;1116;51.502;7.414;2023-05-29T14:04:05;21.00;1.00
2543;DHT22;1116;51.502;7.414;2023-05-29T14:06:36;20.90;1.00
2543;DHT22;1116;51.502;7.414;2023-05-29T14:09:08;20.80;1.00
2543;DHT22;1116;51.502;7.414;2023-05-29T14:11:39;20.60;1.00
2543;DHT22;1116;51.502;7.414;2023-05-29T14:14:13;20.70;1.00
2543;DHT22;1116;51.502;7.414;2023-05-29T14:16:44;20.70;1.00
2543;DHT22;1116;51.502;7.414;2023-05-29T14:19:15;20.80;1.00
2543;DHT22;1116;51.502;7.414;2023-05-29T14:21:46;20.70;1.00
2543;DHT22;1116;51.502;7.414;2023-05-29T14:24:18;20.60;1.00
2543;DHT22;1116;51.502;7.414;2023-05-29T14:26:49;20.60;1.00
2543;DHT22;1116;51.502;7.414;2023-05-29T14:29:22;20.40;1.00
2543;DHT22;1116;51.502;7.414;2023-05-29T14:31:54;20.50;1.00
2543;DHT22;1116;51.502;7.414;2023-05-29T14:34:25;20.40;1.00
2543;DHT22;1116;51.502;7.414;2023-05-29T14:36:56;20.40;1.00
2543;DHT22;1116;51.502;7.414;2023-05-29T14:39:28;20.60;1.00
2543;DHT22;1116;51.502;7.414;2023-05-29T14:41:59;20.70;1.00
2543;DHT22;1116;51.502;7.414;2023-05-29T14:44:32;20.90;1.00
2543;DHT22;1116;51.502;7.414;2023-05-29T14:47:04;20.90;1.00
2543;DHT22;1116;51.502;7.414;2023-05-29T14:49:35;21.00;1.00
2543;DHT22;1116;51.502;7.414;2023-05-29T14:52:06;20.70;1.00
2543;DHT22;1116;51.502;7.414;2023-05-29T14:54:37;20.70;1.00
2543;DHT22;1116;51.502;7.414;2023-05-29T14:57:08;20.40;1.00
2543;DHT22;1116;51.502;7.414;2023-05-29T14:59:42;20.40;1.00
2543;DHT22;1116;51.502;7.414;2023-05-29T15:02:13;20.50;1.00
2543;DHT22;1116;51.502;7.414;2023-05-29T15:04:44;20.40;1.00
2543;DHT22;1116;51.502;7.414;2023-05-29T15:07:16;20.60;1.00
2543;DHT22;1116;51.502;7.414;2023-05-29T15:09:47;20.50;1.00
2543;DHT22;1116;51.502;7.414;2023-05-29T15:12:19;20.50;1.00
2543;DHT22;1116;51.502;7.414;2023-05-29T15:14:53;20.50;1.00
2543;DHT22;1116;51.502;7.414;2023-05-29T15:17:24;20.50;1.00
2543;DHT22;1116;51.502;7.414;2023-05-29T15:19:55;20.40;1.00
2543;DHT22;1116;51.502;7.414;2023-05-29T15:22:26;20.30;1.00
2543;DHT22;1116;51.502;7.414;2023-05-29T15:24:56;20.40;1.00
2543;DHT22;1116;51.502;7.414;2023-05-29T15:27:28;20.50;1.00
2543;DHT22;1116;51.502;7.414;2023-05-29T15:30:11;20.50;1.00
2543;DHT22;1116;51.502;7.414;2023-05-29T15:32:44;20.30;1.00
2543;DHT22;1116;51.502;7.414;2023-05-29T15:35:15;20.40;1.00
2543;DHT22;1116;51.502;7.414;2023-05-29T15:37:46;20.50;1.00
2543;DHT22;1116;51.502;7.414;2023-05-29T15:40:17;20.50;1.00
2543;DHT22;1116;51.502;7.414;2023-05-29T15:42:48;20.40;1.00
2543;DHT22;1116;51.502;7.414;2023-05-29T15:45:22;20.50;1.00
2543;DHT22;1116;51.502;7.414;2023-05-29T15:47:53;20.20;1.00
2543;DHT22;1116;51.502;7.414;2023-05-29T15:50:24;20.30;1.00
2543;DHT22;1116;51.502;7.414;2023-05-29T15:52:55;20.30;1.00
2543;DHT22;1116;51.502;7.414;2023-05-29T15:55:28;20.30;1.00
2543;DHT22;1116;51.502;7.414;2023-05-29T15:57:59;20.40;1.00
2543;DHT22;1116;51.502;7.414;2023-05-29T16:00:32;20.40;1.00
2543;DHT22;1116;51.502;7.414;2023-05-29T16:03:04;20.10;1.00
2543;DHT22;1116;51.502;7.414;2023-05-29T16:05:35;20.00;1.00
2543;DHT22;1116;51.502;7.414;2023-05-29T16:08:06;20.00;1.00
2543;DHT22;1116;51.502;7.414;2023-05-29T16:10:38;20.10;1.00
2543;DHT22;1116;51.502;7.414;2023-05-29T16:13:09;20.10;1.00
2543;DHT22;1116;51.502;7.414;2023-05-29T16:15:43;20.30;1.00
2543;DHT22;1116;51.502;7.414;2023-05-29T16:18:15;20.30;1.00
2543;DHT22;1116;51.502;7.414;2023-05-29T16:20:46;20.30;1.00
2543;DHT22;1116;51.502;7.414;2023-05-29T16:23:18;20.20;1.00
2543;DHT22;1116;51.502;7.414;2023-05-29T16:25:49;20.10;1.00
2543;DHT22;1116;51.502;7.414;2023-05-29T16:28:21;20.00;1.00
2543;DHT22;1116;51.502;7.414;2023-05-29T16:30:54;19.90;1.00
2543;DHT22;1116;51.502;7.414;2023-05-29T16:33:25;19.90;1.00
2543;DHT22;1116;51.502;7.414;2023-05-29T16:35:57;20.00;1.00
2543;DHT22;1116;51.502;7.414;2023-05-29T16:38:28;20.00;1.00
2543;DHT22;1116;51.502;7.414;2023-05-29T16:40:59;19.80;1.00
2543;DHT22;1116;51.502;7.414;2023-05-29T16:43:30;19.90;1.00
2543;DHT22;1116;51.502;7.414;2023-05-29T16:46:03;20.30;1.00
2543;DHT22;1116;51.502;7.414;2023-05-29T16:48:35;19.70;1.00
2543;DHT22;1116;51.502;7.414;2023-05-29T16:51:07;19.70;1.00
2543;DHT22;1116;51.502;7.414;2023-05-29T16:53:38;19.70;1.00
2543;DHT22;1116;51.502;7.414;2023-05-29T16:56:09;20.00;1.00